sensor_id;sensor_type;location;lat;lon;timestamp;temperature;humidity
736;DHT22;352;48.626;9.238;2023-01-15T00:01:39;11.80;99.90
736;DHT22;352;48.626;9.238;2023-01-15T00:04:07;11.90;99.90
736;DHT22;352;48.626;9.238;2023-01-15T00:06:35;11.90;99.90
736;DHT22;352;48.626;9.238;2023-01-15T00:09:02;11.80;99.90
736;DHT22;352;48.626;9.238;2023-01-15T00:11:29;11.80;99.90
736;DHT22;352;48.626;9.238;2023-01-15T00:13:56;11.80;99.90
736;DHT22;352;48.626;9.238;2023-01-15T00:16:24;11.80;99.90
736;DHT22;352;48.626;9.238;2023-01-15T00:18:52;11.80;99.90
736;DHT22;352;48.626;9.238;2023-01-15T00:21:21;11.80;99.90
736;DHT22;352;48.626;9.238;2023-01-15T00:23:48;11.80;99.90
736;DHT22;352;48.626;9.238;2023-01-15T00:26:34;11.90;99.90
736;DHT22;352;48.626;9.238;2023-01-15T00:29:18;11.90;99.90
736;DHT22;352;48.626;9.238;2023-01-15T00:31:52;11.90;99.90
736;DHT22;352;48.626;9.238;2023-01-15T00:34:20;11.90;99.90
736;DHT22;352;48.626;9.238;2023-01-15T00:36:48;12.00;99.90
736;DHT22;352;48.626;9.238;2023-01-15T00:39:15;11.90;99.90
736;DHT22;352;48.626;9.238;2023-01-15T00:41:41;12.00;99.90
736;DHT22;352;48.626;9.238;2023-01-15T00:44:08;12.00;99.90
736;DHT22;352;48.626;9.238;2023-01-15T00:46:35;11.90;99.90
736;DHT22;352;48.626;9.238;2023-01-15T00:49:02;12.10;99.90
736;DHT22;352;48.626;9.238;2023-01-15T00:51:29;12.10;99.90
736;DHT22;352;48.626;9.238;2023-01-15T00:53:58;12.20;99.90
736;DHT22;352;48.626;9.238;2023-01-15T00:56:25;12.20;99.90
736;DHT22;352;48.626;9.238;2023-01-15T00:58:52;12.20;99.90
736;DHT22;352;48.626;9.238;2023-01-15T01:01:19;12.20;99.90
736;DHT22;352;48.626;9.238;2023-01-15T01:03:45;12.20;99.90
736;DHT22;352;48.626;9.238;2023-01-15T01:06:13;12.30;99.90
736;DHT22;352;48.626;9.238;2023-01-15T01:08:41;12.30;99.90
736;DHT22;352;48.626;9.238;2023-01-15T01:11:10;12.20;99.90
736;DHT22;352;48.626;9.238;2023-01-15T01:13:38;12.20;99.90
736;DHT22;352;48.626;9.238;2023-01-15T01:16:21;12.30;99.90
736;DHT22;352;48.626;9.238;2023-01-15T01:18:48;12.30;99.90
736;DHT22;352;48.626;9.238;2023-01-15T01:21:15;12.20;99.90
736;DHT22;352;48.626;9.238;2023-01-15T01:23:42;12.20;99.90
736;DHT22;352;48.626;9.238;2023-01-15T01:26:10;12.10;99.90
736;DHT22;352;48.626;9.238;2023-01-15T01:28:38;12.10;99.90
736;DHT22;352;48.626;9.238;2023-01-15T01:31:05;12.00;99.90
736;DHT22;352;48.626;9.238;2023-01-15T01:33:32;12.00;99.90
736;DHT22;352;48.626;9.238;2023-01-15T01:35:58;12.00;99.90
736;DHT22;352;48.626;9.238;2023-01-15T01:38:25;12.00;99.90
736;DHT22;352;48.626;9.238;2023-01-15T01:40:52;12.00;99.90
736;DHT22;352;48.626;9.238;2023-01-15T01:43:23;12.00;99.90
736;DHT22;352;48.626;9.238;2023-01-15T01:45:49;12.00;99.90
736;DHT22;352;48.626;9.238;2023-01-15T01:48:18;12.00;99.90
736;DHT22;352;48.626;9.238;2023-01-15T01:50:48;12.00;99.90
736;DHT22;352;48.626;9.238;2023-01-15T01:53:18;12.10;99.90
736;DHT22;352;48.626;9.238;2023-01-15T01:55:47;12.10;99.90
736;DHT22;352;48.626;9.238;2023-01-15T01:58:15;12.20;99.90
736;DHT22;352;48.626;9.238;2023-01-15T02:00:47;12.20;99.90
736;DHT22;352;48.626;9.238;2023-01-15T02:03:17;12.20;99.90
736;DHT22;352;48.626;9.238;2023-01-15T02:05:49;12.20;99.90
736;DHT22;352;48.626;9.238;2023-01-15T02:08:17;12.20;99.90
736;DHT22;352;48.626;9.238;2023-01-15T02:10:49;12.30;99.90
736;DHT22;352;48.626;9.238;2023-01-15T02:13:22;12.30;99.90
736;DHT22;352;48.626;9.238;2023-01-15T02:15:57;12.20;99.90
736;DHT22;352;48.626;9.238;2023-01-15T02:18:30;12.30;99.90
736;DHT22;352;48.626;9.238;2023-01-15T02:20:59;12.30;99.90
736;DHT22;352;48.626;9.238;2023-01-15T02:23:40;12.40;99.90
736;DHT22;352;48.626;9.238;2023-01-15T02:26:36;12.40;99.90
736;DHT22;352;48.626;9.238;2023-01-15T02:29:07;12.40;99.90
736;DHT22;352;48.626;9.238;2023-01-15T02:31:36;12.40;99.90
736;DHT22;352;48.626;9.238;2023-01-15T02:34:05;12.40;99.90
736;DHT22;352;48.626;9.238;2023-01-15T02:36:38;12.20;99.90
736;DHT22;352;48.626;9.238;2023-01-15T02:39:09;12.40;99.90
736;DHT22;352;48.626;9.238;2023-01-15T02:41:42;12.40;99.90
736;DHT22;352;48.626;9.238;2023-01-15T02:44:10;12.50;99.90
736;DHT22;352;48.626;9.238;2023-01-15T02:46:39;12.40;99.90
736;DHT22;352;48.626;9.238;2023-01-15T02:49:08;12.50;99.90
736;DHT22;352;48.626;9.238;2023-01-15T02:51:40;12.60;99.90
736;DHT22;352;48.626;9.238;2023-01-15T02:54:12;12.60;99.90
736;DHT22;352;48.626;9.238;2023-01-15T02:56:43;12.60;99.90
736;DHT22;352;48.626;9.238;2023-01-15T02:59:17;12.60;99.90
736;DHT22;352;48.626;9.238;2023-01-15T03:01:47;12.60;99.90
736;DHT22;352;48.626;9.238;2023-01-15T03:04:18;12.60;99.90
736;DHT22;352;48.626;9.238;2023-01-15T03:06:50;12.80;99.90
736;DHT22;352;48.626;9.238;2023-01-15T03:09:19;12.60;99.90
736;DHT22;352;48.626;9.238;2023-01-15T03:11:51;12.60;99.90
736;DHT22;352;48.626;9.238;2023-01-15T03:14:27;12.60;99.90
736;DHT22;352;48.626;9.238;2023-01-15T03:17:00;12.70;99.90
736;DHT22;352;48.626;9.238;2023-01-15T03:19:37;12.60;99.90
736;DHT22;352;48.626;9.238;2023-01-15T03:22:07;12.70;99.90
736;DHT22;352;48.626;9.238;2023-01-15T03:24:39;12.70;99.90
736;DHT22;352;48.626;9.238;2023-01-15T03:27:08;12.70;99.90
736;DHT22;352;48.626;9.238;2023-01-15T03:29:38;12.70;99.90
736;DHT22;352;48.626;9.238;2023-01-15T03:32:05;12.70;99.90
736;DHT22;352;48.626;9.238;2023-01-15T03:34:35;12.70;99.90
736;DHT22;352;48.626;9.238;2023-01-15T03:37:03;12.70;99.90
736;DHT22;352;48.626;9.238;2023-01-15T03:39:30;12.70;99.90
736;DHT22;352;48.626;9.238;2023-01-15T03:42:05;12.70;99.90
736;DHT22;352;48.626;9.238;2023-01-15T03:44:41;12.70;99.90
736;DHT22;352;48.626;9.238;2023-01-15T03:47:19;12.60;99.90
736;DHT22;352;48.626;9.238;2023-01-15T03:49:54;12.60;99.90
736;DHT22;352;48.626;9.238;2023-01-15T03:52:26;12.60;99.90
736;DHT22;352;48.626;9.238;2023-01-15T03:55:02;12.50;99.90
736;DHT22;352;48.626;9.238;2023-01-15T03:57:35;12.50;99.90
736;DHT22;352;48.626;9.238;2023-01-15T04:00:09;12.50;99.90
736;DHT22;352;48.626;9.238;2023-01-15T04:02:38;12.50;99.90
736;DHT22;352;48.626;9.238;2023-01-15T04:05:06;12.40;99.90
736;DHT22;352;48.626;9.238;2023-01-15T04:07:33;12.40;99.90
736;DHT22;352;48.626;9.238;2023-01-15T04:10:00;12.40;99.90
736;DHT22;352;48.626;9.238;2023-01-15T04:12:27;12.40;99.90
736;DHT22;352;48.626;9.238;2023-01-15T04:14:54;12.40;99.90
736;DHT22;352;48.626;9.238;2023-01-15T04:17:22;12.40;99.90
736;DHT22;352;48.626;9.238;2023-01-15T04:19:48;12.40;99.90
736;DHT22;352;48.626;9.238;2023-01-15T04:22:16;12.40;99.90
736;DHT22;352;48.626;9.238;2023-01-15T04:24:42;12.40;99.90
736;DHT22;352;48.626;9.238;2023-01-15T04:27:09;12.40;99.90
736;DHT22;352;48.626;9.238;2023-01-15T04:29:36;12.40;99.90
736;DHT22;352;48.626;9.238;2023-01-15T04:32:03;12.40;99.90
736;DHT22;352;48.626;9.238;2023-01-15T04:34:31;12.40;99.90
736;DHT22;352;48.626;9.238;2023-01-15T04:36:59;12.40;99.90
736;DHT22;352;48.626;9.238;2023-01-15T04:39:26;12.30;99.90
736;DHT22;352;48.626;9.238;2023-01-15T04:41:53;12.40;99.90
736;DHT22;352;48.626;9.238;2023-01-15T04:44:37;12.40;99.90
736;DHT22;352;48.626;9.238;2023-01-15T04:47:05;12.30;99.90
736;DHT22;352;48.626;9.238;2023-01-15T04:49:33;12.30;99.90
736;DHT22;352;48.626;9.238;2023-01-15T04:52:00;12.40;99.90
736;DHT22;352;48.626;9.238;2023-01-15T04:54:27;12.40;99.90
736;DHT22;352;48.626;9.238;2023-01-15T04:56:54;12.40;99.90
736;DHT22;352;48.626;9.238;2023-01-15T04:59:23;12.40;99.90
736;DHT22;352;48.626;9.238;2023-01-15T05:01:50;12.40;99.90
736;DHT22;352;48.626;9.238;2023-01-15T05:04:17;12.40;99.90
736;DHT22;352;48.626;9.238;2023-01-15T05:06:46;12.30;99.90
736;DHT22;352;48.626;9.238;2023-01-15T05:09:12;12.40;99.90
736;DHT22;352;48.626;9.238;2023-01-15T05:11:40;12.40;99.90
736;DHT22;352;48.626;9.238;2023-01-15T05:14:07;12.40;99.90
736;DHT22;352;48.626;9.238;2023-01-15T05:16:34;12.40;99.90
736;DHT22;352;48.626;9.238;2023-01-15T05:19:03;12.40;99.90
736;DHT22;352;48.626;9.238;2023-01-15T05:21:33;12.50;99.90
736;DHT22;352;48.626;9.238;2023-01-15T05:24:04;12.50;99.90
736;DHT22;352;48.626;9.238;2023-01-15T05:26:34;12.80;99.90
736;DHT22;352;48.626;9.238;2023-01-15T05:29:01;12.50;99.90
736;DHT22;352;48.626;9.238;2023-01-15T05:31:28;12.50;99.90
736;DHT22;352;48.626;9.238;2023-01-15T05:33:56;12.50;99.90
736;DHT22;352;48.626;9.238;2023-01-15T05:36:24;12.50;99.90
736;DHT22;352;48.626;9.238;2023-01-15T05:38:52;12.50;99.90
736;DHT22;352;48.626;9.238;2023-01-15T05:41:21;12.60;99.90
736;DHT22;352;48.626;9.238;2023-01-15T05:44:08;12.50;99.90
736;DHT22;352;48.626;9.238;2023-01-15T05:46:36;12.60;99.90
736;DHT22;352;48.626;9.238;2023-01-15T05:49:05;12.60;99.90
736;DHT22;352;48.626;9.238;2023-01-15T05:51:33;12.60;99.90
736;DHT22;352;48.626;9.238;2023-01-15T05:54:00;12.60;99.90
736;DHT22;352;48.626;9.238;2023-01-15T05:56:28;12.50;99.90
736;DHT22;352;48.626;9.238;2023-01-15T05:58:54;12.60;99.90
736;DHT22;352;48.626;9.238;2023-01-15T06:01:22;12.60;99.90
736;DHT22;352;48.626;9.238;2023-01-15T06:03:48;12.60;99.90
736;DHT22;352;48.626;9.238;2023-01-15T06:06:18;12.70;99.90
736;DHT22;352;48.626;9.238;2023-01-15T06:08:45;12.60;99.90
736;DHT22;352;48.626;9.238;2023-01-15T06:11:12;12.30;99.90
736;DHT22;352;48.626;9.238;2023-01-15T06:13:40;12.00;99.90
736;DHT22;352;48.626;9.238;2023-01-15T06:16:08;11.80;99.90
736;DHT22;352;48.626;9.238;2023-01-15T06:18:36;11.60;99.90
736;DHT22;352;48.626;9.238;2023-01-15T06:21:03;11.40;99.90
736;DHT22;352;48.626;9.238;2023-01-15T06:23:31;11.30;99.90
736;DHT22;352;48.626;9.238;2023-01-15T06:26:01;11.20;99.90
736;DHT22;352;48.626;9.238;2023-01-15T06:28:28;11.10;99.90
736;DHT22;352;48.626;9.238;2023-01-15T06:30:56;11.00;99.90
736;DHT22;352;48.626;9.238;2023-01-15T06:33:23;11.00;99.90
736;DHT22;352;48.626;9.238;2023-01-15T06:35:50;10.90;99.90
736;DHT22;352;48.626;9.238;2023-01-15T06:38:17;10.80;99.90
736;DHT22;352;48.626;9.238;2023-01-15T06:40:43;10.80;99.90
736;DHT22;352;48.626;9.238;2023-01-15T06:43:10;10.70;99.90
736;DHT22;352;48.626;9.238;2023-01-15T06:45:56;10.60;99.90
736;DHT22;352;48.626;9.238;2023-01-15T06:48:45;10.60;99.90
736;DHT22;352;48.626;9.238;2023-01-15T06:51:12;10.50;99.90
736;DHT22;352;48.626;9.238;2023-01-15T06:53:43;10.40;99.90
736;DHT22;352;48.626;9.238;2023-01-15T06:56:09;10.40;99.90
736;DHT22;352;48.626;9.238;2023-01-15T06:58:36;10.30;99.90
736;DHT22;352;48.626;9.238;2023-01-15T07:01:08;10.30;99.90
736;DHT22;352;48.626;9.238;2023-01-15T07:03:35;10.20;99.90
736;DHT22;352;48.626;9.238;2023-01-15T07:06:05;10.10;99.90
736;DHT22;352;48.626;9.238;2023-01-15T07:08:31;10.10;99.90
736;DHT22;352;48.626;9.238;2023-01-15T07:11:01;10.10;99.90
736;DHT22;352;48.626;9.238;2023-01-15T07:13:28;10.00;99.90
736;DHT22;352;48.626;9.238;2023-01-15T07:15:57;9.90;99.90
736;DHT22;352;48.626;9.238;2023-01-15T07:18:25;9.90;99.90
736;DHT22;352;48.626;9.238;2023-01-15T07:20:54;9.80;99.90
736;DHT22;352;48.626;9.238;2023-01-15T07:23:21;9.80;99.90
736;DHT22;352;48.626;9.238;2023-01-15T07:25:48;9.80;99.90
736;DHT22;352;48.626;9.238;2023-01-15T07:28:15;9.80;99.90
736;DHT22;352;48.626;9.238;2023-01-15T07:30:41;9.70;99.90
736;DHT22;352;48.626;9.238;2023-01-15T07:33:08;9.70;99.90
736;DHT22;352;48.626;9.238;2023-01-15T07:35:36;9.70;99.90
736;DHT22;352;48.626;9.238;2023-01-15T07:38:03;9.60;99.90
736;DHT22;352;48.626;9.238;2023-01-15T07:40:30;9.60;99.90
736;DHT22;352;48.626;9.238;2023-01-15T07:42:57;9.50;99.90
736;DHT22;352;48.626;9.238;2023-01-15T07:45:42;9.40;99.90
736;DHT22;352;48.626;9.238;2023-01-15T07:48:26;9.40;99.90
736;DHT22;352;48.626;9.238;2023-01-15T07:51:11;9.30;99.90
736;DHT22;352;48.626;9.238;2023-01-15T07:53:38;9.30;99.90
736;DHT22;352;48.626;9.238;2023-01-15T07:56:05;9.30;99.90
736;DHT22;352;48.626;9.238;2023-01-15T07:58:32;9.30;99.90
736;DHT22;352;48.626;9.238;2023-01-15T08:00:59;9.30;99.90
736;DHT22;352;48.626;9.238;2023-01-15T08:03:25;9.30;99.90
736;DHT22;352;48.626;9.238;2023-01-15T08:05:52;9.30;99.90
736;DHT22;352;48.626;9.238;2023-01-15T08:08:20;9.30;99.90
736;DHT22;352;48.626;9.238;2023-01-15T08:10:47;9.30;99.90
736;DHT22;352;48.626;9.238;2023-01-15T08:13:31;9.30;99.90
736;DHT22;352;48.626;9.238;2023-01-15T08:16:15;9.30;99.90
736;DHT22;352;48.626;9.238;2023-01-15T08:18:42;9.40;99.90
736;DHT22;352;48.626;9.238;2023-01-15T08:21:12;9.40;99.90
736;DHT22;352;48.626;9.238;2023-01-15T08:23:41;9.40;99.90
736;DHT22;352;48.626;9.238;2023-01-15T08:26:10;9.40;99.90
736;DHT22;352;48.626;9.238;2023-01-15T08:28:37;9.40;99.90
736;DHT22;352;48.626;9.238;2023-01-15T08:31:04;9.40;99.90
736;DHT22;352;48.626;9.238;2023-01-15T08:33:32;9.40;99.90
736;DHT22;352;48.626;9.238;2023-01-15T08:35:59;9.40;99.90
736;DHT22;352;48.626;9.238;2023-01-15T08:38:26;9.40;99.90
736;DHT22;352;48.626;9.238;2023-01-15T08:40:54;9.40;99.90
736;DHT22;352;48.626;9.238;2023-01-15T08:43:24;9.50;99.90
736;DHT22;352;48.626;9.238;2023-01-15T08:45:50;9.40;99.90
736;DHT22;352;48.626;9.238;2023-01-15T08:48:18;9.40;99.90
736;DHT22;352;48.626;9.238;2023-01-15T08:50:44;9.40;99.90
736;DHT22;352;48.626;9.238;2023-01-15T08:53:11;9.40;99.90
736;DHT22;352;48.626;9.238;2023-01-15T08:55:38;9.40;99.90
736;DHT22;352;48.626;9.238;2023-01-15T08:58:06;9.50;99.90
736;DHT22;352;48.626;9.238;2023-01-15T09:00:33;9.50;99.90
736;DHT22;352;48.626;9.238;2023-01-15T09:03:00;9.50;99.90
736;DHT22;352;48.626;9.238;2023-01-15T09:05:26;9.50;99.90
736;DHT22;352;48.626;9.238;2023-01-15T09:07:53;9.50;99.90
736;DHT22;352;48.626;9.238;2023-01-15T09:10:20;9.50;99.90
736;DHT22;352;48.626;9.238;2023-01-15T09:12:47;9.50;99.90
736;DHT22;352;48.626;9.238;2023-01-15T09:15:15;9.50;99.90
736;DHT22;352;48.626;9.238;2023-01-15T09:17:42;9.50;99.90
736;DHT22;352;48.626;9.238;2023-01-15T09:20:11;9.50;99.90
736;DHT22;352;48.626;9.238;2023-01-15T09:22:38;9.50;99.90
736;DHT22;352;48.626;9.238;2023-01-15T09:25:06;9.50;99.90
736;DHT22;352;48.626;9.238;2023-01-15T09:27:33;9.50;99.90
736;DHT22;352;48.626;9.238;2023-01-15T09:30:00;9.50;99.90
736;DHT22;352;48.626;9.238;2023-01-15T09:32:28;9.50;99.90
736;DHT22;352;48.626;9.238;2023-01-15T09:34:55;9.50;99.90
736;DHT22;352;48.626;9.238;2023-01-15T09:37:21;9.40;99.90
736;DHT22;352;48.626;9.238;2023-01-15T09:39:48;9.40;99.90
736;DHT22;352;48.626;9.238;2023-01-15T09:42:37;9.30;99.90
736;DHT22;352;48.626;9.238;2023-01-15T09:45:19;9.30;99.90
736;DHT22;352;48.626;9.238;2023-01-15T09:48:09;9.20;99.90
736;DHT22;352;48.626;9.238;2023-01-15T09:50:50;9.30;99.90
736;DHT22;352;48.626;9.238;2023-01-15T09:53:36;9.30;99.90
736;DHT22;352;48.626;9.238;2023-01-15T09:56:11;9.40;99.90
736;DHT22;352;48.626;9.238;2023-01-15T09:58:39;9.40;99.90
736;DHT22;352;48.626;9.238;2023-01-15T10:01:14;9.40;99.90
736;DHT22;352;48.626;9.238;2023-01-15T10:03:47;9.50;99.90
736;DHT22;352;48.626;9.238;2023-01-15T10:06:20;9.50;99.90
736;DHT22;352;48.626;9.238;2023-01-15T10:08:49;9.50;99.90
736;DHT22;352;48.626;9.238;2023-01-15T10:11:27;9.50;99.90
736;DHT22;352;48.626;9.238;2023-01-15T10:14:35;9.50;99.90
736;DHT22;352;48.626;9.238;2023-01-15T10:17:14;9.50;99.90
736;DHT22;352;48.626;9.238;2023-01-15T10:19:44;9.50;99.90
736;DHT22;352;48.626;9.238;2023-01-15T10:22:19;9.50;99.90
736;DHT22;352;48.626;9.238;2023-01-15T10:24:53;9.50;99.90
736;DHT22;352;48.626;9.238;2023-01-15T10:27:23;9.50;99.90
736;DHT22;352;48.626;9.238;2023-01-15T10:29:54;9.60;99.90
736;DHT22;352;48.626;9.238;2023-01-15T10:32:31;9.60;99.90
736;DHT22;352;48.626;9.238;2023-01-15T10:35:19;9.60;99.90
736;DHT22;352;48.626;9.238;2023-01-15T10:37:51;9.70;99.90
736;DHT22;352;48.626;9.238;2023-01-15T10:43:19;9.60;99.90
736;DHT22;352;48.626;9.238;2023-01-15T10:45:51;9.60;99.90
736;DHT22;352;48.626;9.238;2023-01-15T10:48:25;9.50;99.90
736;DHT22;352;48.626;9.238;2023-01-15T10:50:59;9.50;99.90
736;DHT22;352;48.626;9.238;2023-01-15T10:53:31;9.40;99.90
736;DHT22;352;48.626;9.238;2023-01-15T10:56:06;9.40;99.90
736;DHT22;352;48.626;9.238;2023-01-15T10:58:37;9.30;99.90
736;DHT22;352;48.626;9.238;2023-01-15T11:01:09;9.30;99.90
736;DHT22;352;48.626;9.238;2023-01-15T11:03:38;9.20;99.90
736;DHT22;352;48.626;9.238;2023-01-15T11:06:12;9.20;99.90
736;DHT22;352;48.626;9.238;2023-01-15T11:08:40;9.20;99.90
736;DHT22;352;48.626;9.238;2023-01-15T11:11:17;9.20;99.90
736;DHT22;352;48.626;9.238;2023-01-15T11:13:52;9.20;99.90
736;DHT22;352;48.626;9.238;2023-01-15T11:16:36;9.20;99.90
736;DHT22;352;48.626;9.238;2023-01-15T11:19:26;9.10;99.90
736;DHT22;352;48.626;9.238;2023-01-15T11:22:08;9.10;99.90
736;DHT22;352;48.626;9.238;2023-01-15T11:24:36;9.10;99.90
736;DHT22;352;48.626;9.238;2023-01-15T11:27:05;9.10;99.90
736;DHT22;352;48.626;9.238;2023-01-15T11:29:34;9.10;99.90
736;DHT22;352;48.626;9.238;2023-01-15T11:32:02;9.00;99.90
736;DHT22;352;48.626;9.238;2023-01-15T11:34:29;9.00;99.90
736;DHT22;352;48.626;9.238;2023-01-15T11:37:03;8.90;99.90
736;DHT22;352;48.626;9.238;2023-01-15T11:39:31;8.90;99.90
736;DHT22;352;48.626;9.238;2023-01-15T11:41:59;8.80;99.90
736;DHT22;352;48.626;9.238;2023-01-15T11:44:52;8.80;99.90
736;DHT22;352;48.626;9.238;2023-01-15T11:47:36;8.70;99.90
736;DHT22;352;48.626;9.238;2023-01-15T11:50:20;8.60;99.90
736;DHT22;352;48.626;9.238;2023-01-15T11:53:07;8.50;99.90
736;DHT22;352;48.626;9.238;2023-01-15T11:55:36;8.30;99.90
736;DHT22;352;48.626;9.238;2023-01-15T11:58:03;8.20;99.90
736;DHT22;352;48.626;9.238;2023-01-15T12:00:37;8.10;99.90
736;DHT22;352;48.626;9.238;2023-01-15T12:03:13;8.20;99.90
736;DHT22;352;48.626;9.238;2023-01-15T12:05:45;8.20;99.90
736;DHT22;352;48.626;9.238;2023-01-15T12:08:19;8.10;99.90
736;DHT22;352;48.626;9.238;2023-01-15T12:10:58;8.10;99.90
736;DHT22;352;48.626;9.238;2023-01-15T12:13:38;8.10;99.90
736;DHT22;352;48.626;9.238;2023-01-15T12:16:14;8.10;99.90
736;DHT22;352;48.626;9.238;2023-01-15T12:18:53;8.00;99.90
736;DHT22;352;48.626;9.238;2023-01-15T12:21:44;8.00;99.90
736;DHT22;352;48.626;9.238;2023-01-15T12:24:51;8.10;99.90
736;DHT22;352;48.626;9.238;2023-01-15T12:27:40;8.00;99.90
736;DHT22;352;48.626;9.238;2023-01-15T12:30:17;8.00;99.90
736;DHT22;352;48.626;9.238;2023-01-15T12:32:51;7.90;99.90
736;DHT22;352;48.626;9.238;2023-01-15T12:35:24;7.90;99.90
736;DHT22;352;48.626;9.238;2023-01-15T12:37:57;7.90;99.90
736;DHT22;352;48.626;9.238;2023-01-15T12:40:26;7.90;99.90
736;DHT22;352;48.626;9.238;2023-01-15T12:42:56;7.90;99.90
736;DHT22;352;48.626;9.238;2023-01-15T12:45:42;7.90;99.90
736;DHT22;352;48.626;9.238;2023-01-15T12:48:14;7.90;99.90
736;DHT22;352;48.626;9.238;2023-01-15T12:50:44;7.90;99.90
736;DHT22;352;48.626;9.238;2023-01-15T12:53:16;7.90;99.90
736;DHT22;352;48.626;9.238;2023-01-15T12:55:49;7.90;99.90
736;DHT22;352;48.626;9.238;2023-01-15T12:58:36;8.00;99.90
736;DHT22;352;48.626;9.238;2023-01-15T13:01:11;7.90;99.90
736;DHT22;352;48.626;9.238;2023-01-15T13:03:50;7.90;99.90
736;DHT22;352;48.626;9.238;2023-01-15T13:06:19;7.80;99.90
736;DHT22;352;48.626;9.238;2023-01-15T13:08:55;7.70;99.90
736;DHT22;352;48.626;9.238;2023-01-15T13:11:22;7.70;99.90
736;DHT22;352;48.626;9.238;2023-01-15T13:13:50;7.70;99.90
736;DHT22;352;48.626;9.238;2023-01-15T13:16:34;7.70;99.90
736;DHT22;352;48.626;9.238;2023-01-15T13:19:16;7.60;99.90
736;DHT22;352;48.626;9.238;2023-01-15T13:21:45;7.60;99.90
736;DHT22;352;48.626;9.238;2023-01-15T13:24:28;7.60;99.90
736;DHT22;352;48.626;9.238;2023-01-15T13:27:15;7.60;99.90
736;DHT22;352;48.626;9.238;2023-01-15T13:29:54;7.60;99.90
736;DHT22;352;48.626;9.238;2023-01-15T13:32:25;7.60;99.90
736;DHT22;352;48.626;9.238;2023-01-15T13:34:56;7.60;99.90
736;DHT22;352;48.626;9.238;2023-01-15T13:37:27;7.60;99.90
736;DHT22;352;48.626;9.238;2023-01-15T13:39:57;7.70;99.90
736;DHT22;352;48.626;9.238;2023-01-15T13:42:27;7.70;99.90
736;DHT22;352;48.626;9.238;2023-01-15T13:45:02;7.70;99.90
736;DHT22;352;48.626;9.238;2023-01-15T13:47:31;7.70;99.90
736;DHT22;352;48.626;9.238;2023-01-15T13:50:03;7.70;99.90
736;DHT22;352;48.626;9.238;2023-01-15T13:52:32;7.60;99.90
736;DHT22;352;48.626;9.238;2023-01-15T13:55:06;7.60;99.90
736;DHT22;352;48.626;9.238;2023-01-15T13:57:35;7.60;99.90
736;DHT22;352;48.626;9.238;2023-01-15T14:00:05;7.60;99.90
736;DHT22;352;48.626;9.238;2023-01-15T14:02:36;7.60;99.90
736;DHT22;352;48.626;9.238;2023-01-15T14:05:28;7.70;99.90
736;DHT22;352;48.626;9.238;2023-01-15T14:07:56;7.70;99.90
736;DHT22;352;48.626;9.238;2023-01-15T14:10:35;7.70;99.90
736;DHT22;352;48.626;9.238;2023-01-15T14:13:42;7.70;99.90
736;DHT22;352;48.626;9.238;2023-01-15T14:16:26;7.80;99.90
736;DHT22;352;48.626;9.238;2023-01-15T14:19:21;7.80;99.90
736;DHT22;352;48.626;9.238;2023-01-15T14:22:02;7.90;99.90
736;DHT22;352;48.626;9.238;2023-01-15T14:27:55;8.00;99.90
736;DHT22;352;48.626;9.238;2023-01-15T14:30:36;7.90;99.90
736;DHT22;352;48.626;9.238;2023-01-15T14:33:19;7.90;99.90
736;DHT22;352;48.626;9.238;2023-01-15T14:35:49;7.80;99.90
736;DHT22;352;48.626;9.238;2023-01-15T14:38:17;7.70;99.90
736;DHT22;352;48.626;9.238;2023-01-15T14:40:53;7.70;99.90
736;DHT22;352;48.626;9.238;2023-01-15T14:43:21;7.60;99.90
736;DHT22;352;48.626;9.238;2023-01-15T14:45:50;7.50;99.90
736;DHT22;352;48.626;9.238;2023-01-15T14:48:20;7.40;99.90
736;DHT22;352;48.626;9.238;2023-01-15T14:51:07;7.40;99.90
736;DHT22;352;48.626;9.238;2023-01-15T14:53:37;7.30;99.90
736;DHT22;352;48.626;9.238;2023-01-15T14:56:15;7.30;99.90
736;DHT22;352;48.626;9.238;2023-01-15T14:58:53;7.20;99.90
736;DHT22;352;48.626;9.238;2023-01-15T15:01:40;7.20;99.90
736;DHT22;352;48.626;9.238;2023-01-15T15:04:14;7.10;99.90
736;DHT22;352;48.626;9.238;2023-01-15T15:06:46;7.00;99.90
736;DHT22;352;48.626;9.238;2023-01-15T15:09:24;7.00;99.90
736;DHT22;352;48.626;9.238;2023-01-15T15:11:53;7.00;99.90
736;DHT22;352;48.626;9.238;2023-01-15T15:14:43;6.90;99.90
736;DHT22;352;48.626;9.238;2023-01-15T15:17:19;6.90;99.90
736;DHT22;352;48.626;9.238;2023-01-15T15:19:56;6.90;99.90
736;DHT22;352;48.626;9.238;2023-01-15T15:22:25;6.90;99.90
736;DHT22;352;48.626;9.238;2023-01-15T15:24:55;6.80;99.90
736;DHT22;352;48.626;9.238;2023-01-15T15:27:23;6.80;99.90
736;DHT22;352;48.626;9.238;2023-01-15T15:29:51;6.80;99.90
736;DHT22;352;48.626;9.238;2023-01-15T15:32:28;6.70;99.90
736;DHT22;352;48.626;9.238;2023-01-15T15:34:57;6.70;99.90
736;DHT22;352;48.626;9.238;2023-01-15T15:37:25;6.70;99.90
736;DHT22;352;48.626;9.238;2023-01-15T15:39:55;6.60;99.90
736;DHT22;352;48.626;9.238;2023-01-15T15:42:26;6.60;99.90
736;DHT22;352;48.626;9.238;2023-01-15T15:45:16;6.60;99.90
736;DHT22;352;48.626;9.238;2023-01-15T15:48:11;6.50;99.90
736;DHT22;352;48.626;9.238;2023-01-15T15:50:57;6.50;99.90
736;DHT22;352;48.626;9.238;2023-01-15T15:53:24;6.50;99.90
736;DHT22;352;48.626;9.238;2023-01-15T15:55:51;6.50;99.90
736;DHT22;352;48.626;9.238;2023-01-15T15:58:22;6.40;99.90
736;DHT22;352;48.626;9.238;2023-01-15T16:00:50;6.40;99.90
736;DHT22;352;48.626;9.238;2023-01-15T16:03:19;6.30;99.90
736;DHT22;352;48.626;9.238;2023-01-15T16:06:00;6.30;99.90
736;DHT22;352;48.626;9.238;2023-01-15T16:08:28;6.30;99.90
736;DHT22;352;48.626;9.238;2023-01-15T16:10:56;6.30;99.90
736;DHT22;352;48.626;9.238;2023-01-15T16:13:26;6.30;99.90
736;DHT22;352;48.626;9.238;2023-01-15T16:15:55;6.30;99.90
736;DHT22;352;48.626;9.238;2023-01-15T16:18:25;6.20;99.90
736;DHT22;352;48.626;9.238;2023-01-15T16:20:53;6.20;99.90
736;DHT22;352;48.626;9.238;2023-01-15T16:23:23;6.20;99.90
736;DHT22;352;48.626;9.238;2023-01-15T16:25:59;6.10;99.90
736;DHT22;352;48.626;9.238;2023-01-15T16:28:34;6.10;99.90
736;DHT22;352;48.626;9.238;2023-01-15T16:31:02;6.10;99.90
736;DHT22;352;48.626;9.238;2023-01-15T16:33:30;6.00;99.90
736;DHT22;352;48.626;9.238;2023-01-15T16:35:57;6.00;99.90
736;DHT22;352;48.626;9.238;2023-01-15T16:38:25;6.00;99.90
736;DHT22;352;48.626;9.238;2023-01-15T16:40:52;6.00;99.90
736;DHT22;352;48.626;9.238;2023-01-15T16:43:21;6.00;99.90
736;DHT22;352;48.626;9.238;2023-01-15T16:45:58;5.90;99.90
736;DHT22;352;48.626;9.238;2023-01-15T16:48:28;6.00;99.90
736;DHT22;352;48.626;9.238;2023-01-15T16:50:58;6.00;99.90
736;DHT22;352;48.626;9.238;2023-01-15T16:53:46;6.00;99.90
736;DHT22;352;48.626;9.238;2023-01-15T16:56:25;5.90;99.90
736;DHT22;352;48.626;9.238;2023-01-15T16:58:52;5.90;99.90
736;DHT22;352;48.626;9.238;2023-01-15T17:01:32;5.80;99.90
736;DHT22;352;48.626;9.238;2023-01-15T17:04:00;5.80;99.90
736;DHT22;352;48.626;9.238;2023-01-15T17:06:27;5.80;99.90
736;DHT22;352;48.626;9.238;2023-01-15T17:08:56;5.80;99.90
736;DHT22;352;48.626;9.238;2023-01-15T17:11:25;5.70;99.90
736;DHT22;352;48.626;9.238;2023-01-15T17:14:07;5.70;99.90
736;DHT22;352;48.626;9.238;2023-01-15T17:16:34;5.70;99.90
736;DHT22;352;48.626;9.238;2023-01-15T17:19:04;5.70;99.90
736;DHT22;352;48.626;9.238;2023-01-15T17:21:32;5.70;99.90